Time;durP1;ratioP1;P1;durP2;ratioP2;P2;SDS_P1;SDS_P2;PMS_P1;PMS_P2;Temp;Humidity;BMP_temperature;BMP_pressure;BME280_temperature;BME280_humidity;BME280_pressure;Samples;Min_cycle;Max_cycle;Signal;HPM_P1;HPM_P2
2023/09/27 00:00:08;;;;;;;;;;;;;;;24.80;37.86;99046.88;4995049;28;20444;-74
2023/09/27 00:02:34;;;;;;;;;;;;;;;24.79;37.96;99052.44;4995748;28;19972;-75
2023/09/27 00:04:59;;;;;;;;;;;;;;;24.77;37.94;99046.47;5013120;28;19929;-75
2023/09/27 00:07:24;;;;;;;;;;;;;;;24.74;38.10;99037.81;4997504;28;19918;-75
2023/09/27 00:09:50;;;;;;;;;;;;;;;24.76;38.09;99042.16;5015817;28;19925;-75
2023/09/27 00:12:18;;;;;;;;;;;;;;;24.73;37.90;99030.03;5015679;28;19924;-75
2023/09/27 00:14:43;;;;;;;;;;;;;;;24.73;37.99;99036.19;5015468;28;19965;-75
2023/09/27 00:17:08;;;;;;;;;;;;;;;24.72;38.07;99025.72;5016337;28;19953;-76
2023/09/27 00:19:34;;;;;;;;;;;;;;;24.71;38.00;99019.53;4998806;28;19921;-75
2023/09/27 00:21:59;;;;;;;;;;;;;;;24.69;38.10;99021.59;5016346;28;19967;-75
2023/09/27 00:24:25;;;;;;;;;;;;;;;24.67;38.28;99023.66;5015326;28;20392;-75
2023/09/27 00:26:50;;;;;;;;;;;;;;;24.67;38.16;99012.97;5015116;28;19918;-75
2023/09/27 00:29:15;;;;;;;;;;;;;;;24.64;38.35;99010.72;4998593;28;20008;-75
2023/09/27 00:31:41;;;;;;;;;;;;;;;24.65;38.47;99016.88;5015351;28;19990;-75
2023/09/27 00:34:06;;;;;;;;;;;;;;;24.63;38.31;99006.38;4998499;28;20396;-76
2023/09/27 00:36:31;;;;;;;;;;;;;;;24.63;38.25;99010.91;5016602;28;19924;-74
2023/09/27 00:38:57;;;;;;;;;;;;;;;24.61;38.49;99000.44;5015122;28;19917;-75
2023/09/27 00:41:22;;;;;;;;;;;;;;;24.59;38.50;99001.66;5014578;28;19922;-75
2023/09/27 00:43:48;;;;;;;;;;;;;;;24.58;38.54;99003.50;5014978;28;19918;-75
2023/09/27 00:46:14;;;;;;;;;;;;;;;24.58;38.57;98990.16;4998232;28;19940;-75
2023/09/27 00:48:40;;;;;;;;;;;;;;;24.57;38.60;98988.50;4997940;28;19917;-75
2023/09/27 00:51:05;;;;;;;;;;;;;;;24.54;38.72;98981.72;5014527;28;19925;-74
2023/09/27 00:53:31;;;;;;;;;;;;;;;24.54;38.71;98987.06;5014779;28;20292;-75
2023/09/27 00:55:56;;;;;;;;;;;;;;;24.55;38.75;98990.53;5014353;28;19918;-76
2023/09/27 00:58:22;;;;;;;;;;;;;;;24.55;38.73;98985.19;5015751;28;20071;-75
2023/09/27 01:00:50;;;;;;;;;;;;;;;24.54;38.80;98986.22;4997974;28;19957;-74
2023/09/27 01:03:16;;;;;;;;;;;;;;;24.55;38.78;98982.53;5015474;28;19983;-74
2023/09/27 01:05:41;;;;;;;;;;;;;;;24.55;38.78;98979.88;5014346;28;20367;-76
2023/09/27 01:08:07;;;;;;;;;;;;;;;24.56;38.69;98981.53;5014156;28;19917;-75
2023/09/27 01:10:32;;;;;;;;;;;;;;;24.56;38.65;98978.84;5015527;28;19922;-75
2023/09/27 01:12:57;;;;;;;;;;;;;;;24.57;38.88;98975.16;5014036;28;19917;-75
2023/09/27 01:15:23;;;;;;;;;;;;;;;24.56;38.71;98981.53;5014011;28;19944;-76
2023/09/27 01:17:52;;;;;;;;;;;;;;;24.57;38.68;98983.19;5013086;28;19917;-75
2023/09/27 01:20:17;;;;;;;;;;;;;;;24.56;38.86;98979.69;4997205;28;19918;-75
2023/09/27 01:22:42;;;;;;;;;;;;;;;24.58;38.67;98984.03;5013988;28;19928;-75
2023/09/27 01:25:08;;;;;;;;;;;;;;;24.57;38.58;98985.84;4997924;28;20288;-75
2023/09/27 01:27:33;;;;;;;;;;;;;;;24.58;38.71;98986.69;5013943;28;19917;-75
2023/09/27 01:29:59;;;;;;;;;;;;;;;24.58;38.80;98989.34;5013613;28;19972;-75
2023/09/27 01:32:24;;;;;;;;;;;;;;;24.58;38.78;98981.34;5014880;28;19967;-76
2023/09/27 01:34:49;;;;;;;;;;;;;;;24.57;38.73;98991.19;5013670;28;19917;-76
2023/09/27 01:37:15;;;;;;;;;;;;;;;24.55;38.74;98987.88;4997631;28;19917;-76
2023/09/27 01:39:40;;;;;;;;;;;;;;;24.53;38.79;98988.06;5014622;28;20026;-76
2023/09/27 01:42:05;;;;;;;;;;;;;;;24.52;38.73;98988.28;5014673;28;20364;-76
2023/09/27 01:44:31;;;;;;;;;;;;;;;24.50;38.56;98983.13;5013733;28;19918;-76
2023/09/27 01:46:56;;;;;;;;;;;;;;;24.49;38.61;98997.50;5014630;28;19917;-75
2023/09/27 01:49:22;;;;;;;;;;;;;;;24.50;38.84;98995.66;5014591;28;19917;-76
2023/09/27 01:51:49;;;;;;;;;;;;;;;24.49;38.79;98994.81;5013516;28;19925;-76
2023/09/27 01:54:14;;;;;;;;;;;;;;;24.49;38.76;99004.69;5013210;28;19921;-76
2023/09/27 01:56:39;;;;;;;;;;;;;;;24.48;38.69;98998.53;5014298;28;19917;-77
2023/09/27 01:59:04;;;;;;;;;;;;;;;24.46;38.99;99002.41;5013697;28;19936;-76
2023/09/27 02:01:30;;;;;;;;;;;;;;;24.45;38.96;98998.09;5013085;28;19917;-77
2023/09/27 02:03:55;;;;;;;;;;;;;;;24.45;38.99;98998.94;4996702;28;19926;-77
2023/09/27 02:06:22;;;;;;;;;;;;;;;24.44;39.10;98991.13;5013339;28;19918;-77
2023/09/27 02:08:47;;;;;;;;;;;;;;;24.43;39.04;99000.16;5014502;28;19971;-77
2023/09/27 02:11:14;;;;;;;;;;;;;;;24.41;39.13;98999.53;5013448;28;20381;-77
2023/09/27 02:13:39;;;;;;;;;;;;;;;24.39;39.22;98999.72;4996592;28;19965;-77
2023/09/27 02:16:04;;;;;;;;;;;;;;;24.37;39.24;98996.44;5012906;28;19971;-77
2023/09/27 02:18:30;;;;;;;;;;;;;;;24.36;39.38;99000.94;5012995;28;19917;-77
2023/09/27 02:20:55;;;;;;;;;;;;;;;24.34;39.37;99002.19;4996930;28;19924;-76
2023/09/27 02:23:20;;;;;;;;;;;;;;;24.32;39.33;98998.88;4996674;28;19921;-77
2023/09/27 02:25:55;;;;;;;;;;;;;;;24.30;39.68;99004.41;5013400;28;20008;-77
2023/09/27 02:28:20;;;;;;;;;;;;;;;24.28;39.56;99005.66;5013164;28;19918;-77
2023/09/27 02:30:45;;;;;;;;;;;;;;;24.27;39.79;99002.13;5011654;28;20451;-77
2023/09/27 02:33:11;;;;;;;;;;;;;;;24.26;39.78;99002.34;5012719;28;19918;-77
2023/09/27 02:35:36;;;;;;;;;;;;;;;24.26;39.68;99003.19;5016554;28;20021;-78
2023/09/27 02:38:02;;;;;;;;;;;;;;;24.26;39.80;99002.34;5032659;28;19956;-77
2023/09/27 02:40:27;;;;;;;;;;;;;;;24.27;39.77;99004.00;5030789;28;20384;-77
2023/09/27 02:42:52;;;;;;;;;;;;;;;24.26;39.95;99005.84;5032289;28;19924;-77
2023/09/27 02:45:18;;;;;;;;;;;;;;;24.27;39.83;99007.47;5032194;28;19921;-79
2023/09/27 02:47:44;;;;;;;;;;;;;;;24.27;39.93;99002.13;5033046;28;20304;-77
2023/09/27 02:50:09;;;;;;;;;;;;;;;24.28;39.88;99017.13;5033031;28;19959;-77
2023/09/27 02:52:35;;;;;;;;;;;;;;;24.27;39.93;99006.66;5032104;28;19952;-77
2023/09/27 02:55:00;;;;;;;;;;;;;;;24.28;39.79;99010.97;5033489;28;19982;-76
2023/09/27 02:57:26;;;;;;;;;;;;;;;24.25;39.95;99008.72;5033257;28;19972;-76
2023/09/27 02:59:51;;;;;;;;;;;;;;;24.25;40.01;99014.84;5015494;28;19923;-77
2023/09/27 03:02:16;;;;;;;;;;;;;;;24.25;40.00;99012.19;5032131;28;19917;-79
2023/09/27 03:04:42;;;;;;;;;;;;;;;24.25;40.01;99014.84;5032247;28;20280;-76
2023/09/27 03:07:08;;;;;;;;;;;;;;;24.26;39.94;99015.66;5032053;28;19917;-77
2023/09/27 03:09:34;;;;;;;;;;;;;;;24.26;39.87;99013.00;5015626;28;19921;-76
2023/09/27 03:12:00;;;;;;;;;;;;;;;24.25;39.90;99006.84;5031547;28;19917;-75
2023/09/27 03:14:25;;;;;;;;;;;;;;;24.25;39.94;99004.19;5032620;28;20008;-76
2023/09/27 03:16:50;;;;;;;;;;;;;;;24.24;39.86;99013.19;5033336;28;19921;-76
2023/09/27 03:19:16;;;;;;;;;;;;;;;24.22;40.04;99009.09;5032108;28;20015;-76
2023/09/27 03:21:41;;;;;;;;;;;;;;;24.19;40.05;99013.81;5029257;28;19918;-77
2023/09/27 03:24:08;;;;;;;;;;;;;;;24.19;40.11;99004.97;5032479;28;19924;-80
2023/09/27 03:26:33;;;;;;;;;;;;;;;24.18;39.97;99009.50;5030402;28;20438;-77
2023/09/27 03:28:58;;;;;;;;;;;;;;;24.16;40.09;99005.38;5032915;28;19921;-77
2023/09/27 03:31:24;;;;;;;;;;;;;;;24.14;40.20;99005.56;5032121;28;20012;-76
2023/09/27 03:33:49;;;;;;;;;;;;;;;24.14;40.28;99007.44;5015397;28;19917;-78
2023/09/27 03:36:14;;;;;;;;;;;;;;;24.11;40.32;99007.81;5015336;28;20296;-79
2023/09/27 03:38:40;;;;;;;;;;;;;;;24.10;40.30;99008.84;5029601;28;19952;-76
2023/09/27 03:41:09;;;;;;;;;;;;;;;24.10;40.25;99008.84;5019393;28;20425;-78
2023/09/27 03:43:34;;;;;;;;;;;;;;;24.12;41.10;99012.97;5035600;28;19921;-76
2023/09/27 03:46:06;;;;;;;;;;;;;;;24.16;41.31;99011.56;5031676;28;19918;-85
2023/09/27 03:48:31;;;;;;;;;;;;;;;24.13;41.44;99008.44;5019368;28;19921;-77
2023/09/27 03:50:57;;;;;;;;;;;;;;;24.19;41.38;99012.97;5018997;28;20004;-76
2023/09/27 03:53:22;;;;;;;;;;;;;;;24.22;41.24;99015.25;5018894;28;20451;-81
2023/09/27 03:55:47;;;;;;;;;;;;;;;24.26;41.04;99008.50;5036030;28;19961;-77
2023/09/27 03:58:13;;;;;;;;;;;;;;;24.29;41.03;99012.59;5037124;28;19957;-77
2023/09/27 04:00:38;;;;;;;;;;;;;;;24.27;41.22;99010.13;5031116;28;19917;-77
2023/09/27 04:03:03;;;;;;;;;;;;;;;24.29;41.55;99010.78;5022923;28;19927;-77
2023/09/27 04:05:29;;;;;;;;;;;;;;;24.33;41.11;99012.00;5024837;28;19921;-79
2023/09/27 04:07:54;;;;;;;;;;;;;;;24.32;41.05;99012.22;5030691;28;19944;-78
2023/09/27 04:10:20;;;;;;;;;;;;;;;24.35;40.88;99009.16;5041884;28;20396;-77
2023/09/27 04:12:45;;;;;;;;;;;;;;;24.36;41.44;99022.28;5035360;28;19924;-80
2023/09/27 04:15:10;;;;;;;;;;;;;;;24.46;40.87;99015.75;5036553;28;19924;-81
2023/09/27 04:17:37;;;;;;;;;;;;;;;24.57;40.28;99017.88;5019702;28;19924;-77
2023/09/27 04:20:14;;;;;;;;;;;;;;;24.73;40.30;99020.19;5034890;28;20024;-77
2023/09/27 04:22:43;;;;;;;;;;;;;;;24.92;40.37;99015.06;5035384;28;19917;-77
2023/09/27 04:25:09;;;;;;;;;;;;;;;25.18;39.34;99011.59;5036416;28;20384;-76
2023/09/27 04:27:34;;;;;;;;;;;;;;;25.37;39.44;99012.66;5036131;28;19924;-77
2023/09/27 04:29:59;;;;;;;;;;;;;;;25.46;38.84;99011.41;5018353;28;19924;-73
2023/09/27 04:32:25;;;;;;;;;;;;;;;25.67;38.05;99014.06;5032996;28;19924;-78
2023/09/27 04:34:51;;;;;;;;;;;;;;;25.95;38.53;99016.44;5018740;28;19924;-80
2023/09/27 04:37:16;;;;;;;;;;;;;;;26.13;38.23;99018.50;5033869;28;19917;-80
2023/09/27 04:39:42;;;;;;;;;;;;;;;26.17;37.74;99019.69;5018380;28;19917;-81
2023/09/27 04:42:08;;;;;;;;;;;;;;;26.22;37.75;99030.63;5036223;28;19921;-79
2023/09/27 04:44:33;;;;;;;;;;;;;;;26.31;37.71;99029.34;5035857;28;19975;-80
2023/09/27 04:46:58;;;;;;;;;;;;;;;26.48;37.05;99032.34;5036353;28;19917;-81
2023/09/27 04:49:23;;;;;;;;;;;;;;;26.70;36.25;99032.06;5035057;28;20325;-80
2023/09/27 04:51:49;;;;;;;;;;;;;;;27.08;36.02;99036.56;5018909;28;20020;-79
2023/09/27 04:54:14;;;;;;;;;;;;;;;27.66;35.66;99035.47;5033549;28;19917;-79
2023/09/27 04:56:40;;;;;;;;;;;;;;;28.45;34.97;99029.44;5035901;28;19917;-79
2023/09/27 04:59:05;;;;;;;;;;;;;;;28.94;34.19;99035.63;5035866;28;20312;-74
2023/09/27 05:01:31;;;;;;;;;;;;;;;29.58;32.90;99035.03;5034345;28;20007;-77
2023/09/27 05:03:57;;;;;;;;;;;;;;;29.66;32.37;99031.97;5036050;28;19994;-75
2023/09/27 05:06:22;;;;;;;;;;;;;;;29.61;32.83;99033.75;5035839;28;19925;-78
2023/09/27 05:08:47;;;;;;;;;;;;;;;29.83;31.99;99023.25;5033378;28;20322;-79
2023/09/27 05:11:13;;;;;;;;;;;;;;;30.04;32.05;99027.19;5016697;28;20027;-78
2023/09/27 05:13:38;;;;;;;;;;;;;;;30.35;31.33;99028.63;5034151;28;19917;-77
2023/09/27 05:16:03;;;;;;;;;;;;;;;30.31;31.08;99027.44;5034832;28;20391;-78
2023/09/27 05:18:29;;;;;;;;;;;;;;;30.44;31.10;99024.50;5035853;28;19924;-78
2023/09/27 05:20:54;;;;;;;;;;;;;;;30.41;31.12;99025.00;5035474;28;19917;-79
2023/09/27 05:23:19;;;;;;;;;;;;;;;30.27;30.72;99027.13;5034075;28;20011;-77
2023/09/27 05:25:45;;;;;;;;;;;;;;;30.16;31.49;99030.66;5033916;28;19917;-77
2023/09/27 05:28:10;;;;;;;;;;;;;;;29.92;31.54;99024.50;5035115;28;19917;-76
2023/09/27 05:30:35;;;;;;;;;;;;;;;29.72;31.86;99036.41;5034123;28;20400;-77
2023/09/27 05:33:01;;;;;;;;;;;;;;;29.71;31.87;99034.78;5034441;28;19917;-78
2023/09/27 05:35:26;;;;;;;;;;;;;;;30.17;30.92;99034.16;5018009;28;19917;-77
2023/09/27 05:37:52;;;;;;;;;;;;;;;30.41;30.67;99041.16;5034253;28;19917;-77
2023/09/27 05:40:17;;;;;;;;;;;;;;;30.57;30.77;99042.25;5034968;28;20019;-78
2023/09/27 05:42:43;;;;;;;;;;;;;;;30.68;30.55;99037.88;5033370;28;20011;-77
2023/09/27 05:45:11;;;;;;;;;;;;;;;30.82;30.13;99044.59;5033581;28;20365;-77
2023/09/27 05:47:36;;;;;;;;;;;;;;;31.01;29.72;99041.69;5033743;28;19917;-82
2023/09/27 05:50:04;;;;;;;;;;;;;;;31.20;29.50;99051.22;5017395;28;20451;-79
2023/09/27 05:52:29;;;;;;;;;;;;;;;31.42;29.22;99045.06;5017809;28;20288;-77
2023/09/27 05:54:54;;;;;;;;;;;;;;;31.60;29.07;99043.22;5033461;28;19917;-80
2023/09/27 05:57:21;;;;;;;;;;;;;;;31.79;28.71;99051.84;5034140;28;19948;-80
2023/09/27 05:59:47;;;;;;;;;;;;;;;31.85;28.73;99050.84;5033876;28;19917;-78
2023/09/27 06:02:16;;;;;;;;;;;;;;;31.97;28.46;99053.44;5033375;28;19975;-80
2023/09/27 06:04:45;;;;;;;;;;;;;;;32.04;28.45;99056.75;5034475;28;20011;-81
2023/09/27 06:07:13;;;;;;;;;;;;;;;32.15;28.30;99063.97;5016994;28;19917;-80
2023/09/27 06:09:39;;;;;;;;;;;;;;;32.02;28.48;99057.00;5017446;28;19917;-78
2023/09/27 06:12:05;;;;;;;;;;;;;;;32.19;28.21;99053.47;5033781;28;19917;-77
2023/09/27 06:14:30;;;;;;;;;;;;;;;32.54;27.69;99053.06;5016869;28;19917;-82
2023/09/27 06:16:57;;;;;;;;;;;;;;;32.81;27.21;99052.28;5033502;28;19917;-79
2023/09/27 06:19:22;;;;;;;;;;;;;;;32.88;27.53;99058.31;5033498;28;19917;-79
2023/09/27 06:21:48;;;;;;;;;;;;;;;33.15;27.30;99052.88;5033360;28;19925;-79
2023/09/27 06:24:13;;;;;;;;;;;;;;;33.73;26.32;99063.06;5033343;28;19975;-80
2023/09/27 06:26:41;;;;;;;;;;;;;;;34.01;26.06;99059.16;5033166;28;19924;-79
2023/09/27 06:29:07;;;;;;;;;;;;;;;34.51;25.71;99053.44;5034462;28;19917;-79
2023/09/27 06:31:34;;;;;;;;;;;;;;;35.12;24.82;99055.44;5034486;28;19917;-78
2023/09/27 06:34:00;;;;;;;;;;;;;;;35.49;24.65;99057.09;5033341;28;19917;-83
2023/09/27 06:36:29;;;;;;;;;;;;;;;35.89;24.53;99054.59;5033256;28;19921;-78
2023/09/27 06:38:55;;;;;;;;;;;;;;;36.34;24.15;99063.66;5034558;28;19964;-79
2023/09/27 06:41:20;;;;;;;;;;;;;;;36.52;23.84;99054.06;5032974;28;20363;-80
2023/09/27 06:43:45;;;;;;;;;;;;;;;36.69;23.84;99059.09;5033089;28;19976;-78
2023/09/27 06:46:12;;;;;;;;;;;;;;;36.66;23.91;99055.06;5032839;28;19924;-79
2023/09/27 06:48:37;;;;;;;;;;;;;;;36.86;23.74;99054.16;5034702;28;19974;-78
2023/09/27 06:51:03;;;;;;;;;;;;;;;37.23;23.09;99057.44;5033055;28;20327;-79
2023/09/27 06:53:28;;;;;;;;;;;;;;;37.53;22.58;99056.31;5016572;28;19917;-78
2023/09/27 06:55:54;;;;;;;;;;;;;;;37.87;22.25;99060.88;5033418;28;19925;-80
2023/09/27 06:58:25;;;;;;;;;;;;;;;38.21;22.21;99051.78;5017701;28;20340;-78
2023/09/27 07:00:51;;;;;;;;;;;;;;;38.39;22.23;99060.28;5018784;28;19921;-77
2023/09/27 07:03:19;;;;;;;;;;;;;;;38.66;22.02;99068.63;5035905;28;19947;-78
2023/09/27 07:05:46;;;;;;;;;;;;;;;38.72;21.91;99066.66;5016966;28;19924;-77
2023/09/27 07:08:11;;;;;;;;;;;;;;;38.50;22.05;99073.47;5042401;28;19913;-78
2023/09/27 07:10:36;;;;;;;;;;;;;;;38.52;22.09;99075.91;5054321;28;19917;-78
2023/09/27 07:13:02;;;;;;;;;;;;;;;38.57;22.04;99075.81;5038078;28;19928;-77
2023/09/27 07:15:27;;;;;;;;;;;;;;;38.65;22.30;99085.28;5055809;28;19924;-77
2023/09/27 07:17:52;;;;;;;;;;;;;;;38.63;22.01;99080.13;5055654;28;20004;-79
2023/09/27 07:20:27;;;;;;;;;;;;;;;38.97;21.80;99073.63;5056877;28;19985;-78
2023/09/27 07:22:52;;;;;;;;;;;;;;;38.89;22.06;99079.78;5035709;28;19940;-77
2023/09/27 07:25:19;;;;;;;;;;;;;;;38.86;22.16;99085.81;5033387;28;20308;-78
2023/09/27 07:27:46;;;;;;;;;;;;;;;38.81;22.21;99088.59;5032271;28;20024;-82
2023/09/27 07:30:11;;;;;;;;;;;;;;;38.61;22.43;99095.16;5032624;28;19964;-77
2023/09/27 07:32:39;;;;;;;;;;;;;;;38.73;22.46;99090.91;5015103;28;19956;-78
2023/09/27 07:35:07;;;;;;;;;;;;;;;38.61;22.57;99092.44;5015854;28;19991;-78
2023/09/27 07:37:34;;;;;;;;;;;;;;;38.53;22.71;99089.25;5031807;28;19928;-78
2023/09/27 07:39:59;;;;;;;;;;;;;;;38.60;22.62;99091.59;5032004;28;19917;-79
2023/09/27 07:42:25;;;;;;;;;;;;;;;38.62;22.66;99096.78;5015050;28;19928;-78
2023/09/27 07:44:50;;;;;;;;;;;;;;;38.76;22.67;99084.03;5015261;28;19924;-81
2023/09/27 07:47:15;;;;;;;;;;;;;;;38.94;21.86;99087.88;5015123;28;19917;-80
2023/09/27 07:49:41;;;;;;;;;;;;;;;38.98;22.03;99099.00;5015516;28;19917;-78
2023/09/27 07:52:06;;;;;;;;;;;;;;;39.26;21.78;99089.03;5014739;28;19924;-78
2023/09/27 07:54:33;;;;;;;;;;;;;;;39.49;21.13;99089.19;5015016;28;20296;-79
2023/09/27 07:56:59;;;;;;;;;;;;;;;39.77;20.62;99087.31;5031610;28;19917;-78
2023/09/27 07:59:25;;;;;;;;;;;;;;;39.91;20.85;99092.81;5031941;28;19921;-81
2023/09/27 08:01:50;;;;;;;;;;;;;;;40.12;20.72;99088.59;5015955;28;20414;-79
2023/09/27 08:04:16;;;;;;;;;;;;;;;40.38;20.17;99098.97;5031959;28;19921;-79
2023/09/27 08:06:41;;;;;;;;;;;;;;;40.56;19.65;99094.50;5031474;28;19928;-81
2023/09/27 08:09:07;;;;;;;;;;;;;;;40.70;19.32;99087.06;5014889;28;20012;-78
2023/09/27 08:11:32;;;;;;;;;;;;;;;40.89;19.10;99107.22;5014925;28;19921;-78
2023/09/27 08:13:57;;;;;;;;;;;;;;;40.94;18.88;99096.94;5031767;28;19971;-78
2023/09/27 08:16:23;;;;;;;;;;;;;;;41.00;19.26;99109.41;5032486;28;20312;-78
2023/09/27 08:18:49;;;;;;;;;;;;;;;41.08;18.71;99101.56;5015179;28;19964;-79
2023/09/27 08:21:14;;;;;;;;;;;;;;;41.07;18.52;99102.69;5031776;28;20372;-78
2023/09/27 08:23:41;;;;;;;;;;;;;;;41.07;18.68;99111.72;5031573;28;19917;-79
2023/09/27 08:26:06;;;;;;;;;;;;;;;41.08;18.30;99105.09;5032832;28;19983;-79
2023/09/27 08:28:32;;;;;;;;;;;;;;;40.92;18.32;99106.59;5034075;28;19917;-79
2023/09/27 08:31:00;;;;;;;;;;;;;;;40.98;18.32;99102.63;5036274;28;19917;-80
2023/09/27 08:33:25;;;;;;;;;;;;;;;40.98;18.17;99105.38;5035139;28;19921;-79
2023/09/27 08:35:52;;;;;;;;;;;;;;;41.00;17.69;99100.38;5018704;28;19921;-82
2023/09/27 08:38:17;;;;;;;;;;;;;;;41.02;17.79;99104.44;5035492;28;19924;-78
2023/09/27 08:40:42;;;;;;;;;;;;;;;41.01;17.55;99110.22;5036236;28;20304;-79
2023/09/27 08:43:08;;;;;;;;;;;;;;;41.03;17.68;99117.00;5035094;28;19921;-79
2023/09/27 08:45:33;;;;;;;;;;;;;;;41.05;18.00;99111.19;5018112;28;19921;-82
2023/09/27 08:47:59;;;;;;;;;;;;;;;41.12;18.40;99114.34;5018521;28;19917;-80
2023/09/27 08:50:24;;;;;;;;;;;;;;;41.18;18.30;99099.41;5018319;28;19917;-80
2023/09/27 08:52:50;;;;;;;;;;;;;;;40.14;19.36;99100.03;5034643;28;19924;-81
2023/09/27 08:55:15;;;;;;;;;;;;;;;40.28;18.85;99107.38;5034582;28;19939;-82
2023/09/27 08:57:47;;;;;;;;;;;;;;;40.51;18.67;99100.09;5035921;28;19924;-81
2023/09/27 09:00:19;;;;;;;;;;;;;;;40.63;18.29;99088.63;5018001;28;19917;-81
2023/09/27 09:02:45;;;;;;;;;;;;;;;40.72;18.20;99089.50;5034399;28;20311;-80
2023/09/27 09:05:12;;;;;;;;;;;;;;;40.82;17.99;99102.97;5034778;28;19932;-81
2023/09/27 09:07:38;;;;;;;;;;;;;;;39.85;19.21;99088.56;5018710;28;20285;-81
2023/09/27 09:10:04;;;;;;;;;;;;;;;39.12;19.73;99088.97;5034930;28;20047;-80
2023/09/27 09:12:29;;;;;;;;;;;;;;;39.21;19.64;99080.94;5019500;28;19968;-81
2023/09/27 09:14:55;;;;;;;;;;;;;;;39.66;19.20;99075.78;5034533;28;19918;-81
2023/09/27 09:17:25;;;;;;;;;;;;;;;39.28;19.56;99075.09;5034502;28;20030;-82
2023/09/27 09:20:23;;;;;;;;;;;;;;;39.22;19.68;99082.53;5018440;28;19943;-80
2023/09/27 09:22:50;;;;;;;;;;;;;;;39.11;19.99;99081.09;5020519;28;20377;-83
2023/09/27 09:25:18;;;;;;;;;;;;;;;39.33;19.36;99075.81;5035487;28;19956;-81
2023/09/27 09:27:43;;;;;;;;;;;;;;;39.26;19.62;99073.44;5017750;28;19921;-79
2023/09/27 09:30:12;;;;;;;;;;;;;;;38.55;20.72;99081.56;5034360;28;19917;-79
2023/09/27 09:32:47;;;;;;;;;;;;;;;38.98;19.34;99077.16;5017634;28;19917;-79
2023/09/27 09:35:24;;;;;;;;;;;;;;;39.10;19.56;99079.50;5033942;28;19921;-79
2023/09/27 09:37:49;;;;;;;;;;;;;;;39.13;18.77;99068.78;5034228;28;19917;-78
2023/09/27 09:40:15;;;;;;;;;;;;;;;39.16;18.22;99067.38;5017139;28;20444;-80
2023/09/27 09:42:43;;;;;;;;;;;;;;;39.12;17.60;99101.81;5033517;28;20392;-79
2023/09/27 09:45:12;;;;;;;;;;;;;;;39.04;17.22;99086.91;5033778;28;19917;-78
2023/09/27 09:47:37;;;;;;;;;;;;;;;38.84;17.18;99094.31;5033980;28;20008;-79
2023/09/27 09:50:08;;;;;;;;;;;;;;;38.40;17.53;99086.44;5016889;28;20367;-77
2023/09/27 09:52:35;;;;;;;;;;;;;;;38.40;17.68;99083.69;5033937;28;19927;-79
2023/09/27 09:55:02;;;;;;;;;;;;;;;38.19;17.83;99078.50;5033742;28;19924;-78
2023/09/27 09:57:31;;;;;;;;;;;;;;;38.15;17.12;99069.28;5033492;28;19917;-78
2023/09/27 10:00:12;;;;;;;;;;;;;;;38.08;17.13;99094.16;5016715;28;19917;-78
2023/09/27 10:02:41;;;;;;;;;;;;;;;38.07;17.02;99086.28;5017942;28;19974;-78
2023/09/27 10:05:07;;;;;;;;;;;;;;;37.43;18.10;99080.91;5017265;28;20442;-83
2023/09/27 10:07:33;;;;;;;;;;;;;;;37.51;17.84;99083.00;5017237;28;20007;-79
2023/09/27 10:09:58;;;;;;;;;;;;;;;37.45;18.12;99076.81;5033400;28;19969;-81
2023/09/27 10:12:23;;;;;;;;;;;;;;;37.41;17.69;99074.94;5016614;28;20072;-81
2023/09/27 10:14:49;;;;;;;;;;;;;;;37.33;17.88;99068.22;5016713;28;19917;-79
2023/09/27 10:17:21;;;;;;;;;;;;;;;37.25;18.16;99061.47;5033218;28;19924;-78
2023/09/27 10:20:02;;;;;;;;;;;;;;;37.18;18.22;99057.41;5033060;28;19917;-78
2023/09/27 10:22:27;;;;;;;;;;;;;;;37.10;18.07;99064.28;5033354;28;19976;-79
2023/09/27 10:24:53;;;;;;;;;;;;;;;36.98;18.23;99056.50;5033094;28;19921;-78
2023/09/27 10:27:18;;;;;;;;;;;;;;;36.80;18.04;99055.28;5034016;28;19917;-77
2023/09/27 10:30:00;;;;;;;;;;;;;;;36.60;18.42;99050.75;5033960;28;19923;-78
2023/09/27 10:32:26;;;;;;;;;;;;;;;36.48;18.49;99064.66;5032988;28;20074;-76
2023/09/27 10:34:51;;;;;;;;;;;;;;;36.37;18.86;99060.38;5032681;28;19952;-78
2023/09/27 10:37:27;;;;;;;;;;;;;;;36.23;18.74;99039.22;5034125;28;19917;-79
2023/09/27 10:40:12;;;;;;;;;;;;;;;36.13;18.83;99041.19;5016513;28;20358;-80
2023/09/27 10:42:42;;;;;;;;;;;;;;;35.98;19.04;99042.06;5032554;28;19960;-77
2023/09/27 10:45:08;;;;;;;;;;;;;;;35.90;19.14;99034.47;5033030;28;19917;-78
2023/09/27 10:47:34;;;;;;;;;;;;;;;35.85;19.01;99036.13;5032575;28;19921;-77
2023/09/27 10:49:59;;;;;;;;;;;;;;;35.79;18.96;99026.38;5032567;28;20059;-77
2023/09/27 10:52:26;;;;;;;;;;;;;;;35.73;18.97;99027.44;5031283;28;19979;-78
2023/09/27 10:54:52;;;;;;;;;;;;;;;35.47;19.34;99027.50;5032325;28;20305;-78
2023/09/27 10:57:19;;;;;;;;;;;;;;;35.21;19.37;99034.03;5032220;28;19921;-77
2023/09/27 10:59:46;;;;;;;;;;;;;;;34.96;19.53;98998.50;5032437;28;19971;-80
2023/09/27 11:02:13;;;;;;;;;;;;;;;34.67;19.83;99017.16;5032010;28;20238;-80
2023/09/27 11:04:40;;;;;;;;;;;;;;;34.43;20.43;99017.66;5015911;28;20366;-77
2023/09/27 11:07:06;;;;;;;;;;;;;;;34.21;19.96;99015.13;5033508;28;19921;-76
2023/09/27 11:09:31;;;;;;;;;;;;;;;34.05;20.35;99010.72;5033114;28;20380;-77
2023/09/27 11:11:59;;;;;;;;;;;;;;;33.87;20.88;99018.25;5015727;28;19917;-78
2023/09/27 11:14:25;;;;;;;;;;;;;;;33.71;20.44;99008.41;5033179;28;19952;-78
2023/09/27 11:16:50;;;;;;;;;;;;;;;33.52;21.02;98997.97;5033431;28;19964;-77
2023/09/27 11:19:25;;;;;;;;;;;;;;;33.36;20.80;98996.25;5032300;28;19917;-76
2023/09/27 11:21:50;;;;;;;;;;;;;;;33.21;21.40;99002.38;5015354;28;20395;-77
2023/09/27 11:24:16;;;;;;;;;;;;;;;33.09;21.61;99004.41;5015647;28;19940;-78
2023/09/27 11:26:42;;;;;;;;;;;;;;;32.97;21.99;99000.00;5032106;28;19997;-77
2023/09/27 11:29:07;;;;;;;;;;;;;;;32.88;22.16;99000.72;5015173;28;19917;-78
2023/09/27 11:31:33;;;;;;;;;;;;;;;32.79;22.49;99003.09;5032263;28;19921;-78
2023/09/27 11:34:14;;;;;;;;;;;;;;;32.73;22.48;98990.59;5015462;28;19924;-77
2023/09/27 11:36:43;;;;;;;;;;;;;;;32.61;22.70;98990.75;5033211;28;19924;-79
2023/09/27 11:39:08;;;;;;;;;;;;;;;32.54;22.81;98990.13;5033442;28;19964;-76
2023/09/27 11:41:33;;;;;;;;;;;;;;;32.49;23.27;98985.47;5031686;28;20006;-78
2023/09/27 11:43:59;;;;;;;;;;;;;;;32.47;23.55;98999.25;5031916;28;19921;-81
2023/09/27 11:46:25;;;;;;;;;;;;;;;32.44;23.63;98988.13;5031777;28;19928;-77
2023/09/27 11:48:51;;;;;;;;;;;;;;;32.44;23.63;98993.53;5015506;28;19928;-80
2023/09/27 11:51:16;;;;;;;;;;;;;;;32.40;23.92;98993.22;5031638;28;19917;-77
2023/09/27 11:53:41;;;;;;;;;;;;;;;32.37;24.03;98990.19;5031558;28;20307;-78
2023/09/27 11:56:07;;;;;;;;;;;;;;;32.30;24.19;98979.59;5015158;28;19917;-77
2023/09/27 11:58:32;;;;;;;;;;;;;;;32.20;24.31;98985.72;5032952;28;19946;-77
2023/09/27 12:00:58;;;;;;;;;;;;;;;32.16;24.58;98976.47;5033038;28;19917;-77
2023/09/27 12:03:23;;;;;;;;;;;;;;;32.20;24.51;98977.63;5034046;28;20019;-78
2023/09/27 12:05:48;;;;;;;;;;;;;;;32.21;24.67;98976.56;5019266;28;19929;-77
2023/09/27 12:08:14;;;;;;;;;;;;;;;32.22;24.78;98977.38;5035368;28;20381;-77
2023/09/27 12:10:39;;;;;;;;;;;;;;;32.22;24.96;98970.06;5035103;28;19917;-79
2023/09/27 12:13:05;;;;;;;;;;;;;;;32.22;25.07;98961.97;5035546;28;19925;-78
2023/09/27 12:15:30;;;;;;;;;;;;;;;32.26;25.16;98962.25;5035381;28;20361;-78
2023/09/27 12:17:56;;;;;;;;;;;;;;;32.31;25.12;98953.41;5036218;28;19923;-75
2023/09/27 12:20:21;;;;;;;;;;;;;;;32.24;25.37;98957.13;5018729;28;19921;-79
2023/09/27 12:22:46;;;;;;;;;;;;;;;32.20;25.49;98955.22;5018413;28;19917;-76
2023/09/27 12:25:12;;;;;;;;;;;;;;;32.14;25.55;98954.31;5036578;28;19917;-78
2023/09/27 12:27:37;;;;;;;;;;;;;;;32.09;25.50;98956.97;5035122;28;20331;-77
2023/09/27 12:30:05;;;;;;;;;;;;;;;32.00;25.75;98953.84;5035328;28;19929;-78
2023/09/27 12:32:30;;;;;;;;;;;;;;;31.93;25.81;98953.25;5035514;28;19968;-77
2023/09/27 12:34:55;;;;;;;;;;;;;;;31.87;25.69;98951.56;5035154;28;19921;-78
2023/09/27 12:37:20;;;;;;;;;;;;;;;31.81;26.15;98953.38;5036441;28;20008;-77
2023/09/27 12:39:46;;;;;;;;;;;;;;;31.74;26.31;98947.34;5035417;28;19917;-78
2023/09/27 12:42:12;;;;;;;;;;;;;;;31.75;26.29;98940.88;5036474;28;20364;-76